createdAt,value
2022-12-09T00:01:53.850Z,3.60
2022-12-09T00:04:28.307Z,3.60
2022-12-09T00:07:01.714Z,3.70
2022-12-09T00:09:35.550Z,3.70
2022-12-09T00:12:08.897Z,3.70
2022-12-09T00:14:39.840Z,3.80
2022-12-09T00:17:10.976Z,3.80
2022-12-09T00:19:41.968Z,3.80
2022-12-09T00:22:12.813Z,3.70
2022-12-09T00:24:46.260Z,3.70
2022-12-09T00:27:17.126Z,3.80
2022-12-09T00:29:48.098Z,3.80
2022-12-09T00:32:22.008Z,3.90
2022-12-09T00:34:53.909Z,3.90
2022-12-09T00:37:24.797Z,3.90
2022-12-09T00:39:58.334Z,4.00
2022-12-09T00:42:30.271Z,3.90
2022-12-09T00:45:01.296Z,3.90
2022-12-09T00:47:32.247Z,3.90
2022-12-09T00:50:03.304Z,3.90
2022-12-09T00:52:34.590Z,3.90
2022-12-09T00:55:08.878Z,3.90
2022-12-09T00:57:40.491Z,3.90
2022-12-09T01:00:13.319Z,3.90
2022-12-09T01:02:44.401Z,4.00
2022-12-09T01:05:15.569Z,3.90
2022-12-09T01:07:46.788Z,3.80
2022-12-09T01:10:20.871Z,3.80
2022-12-09T01:12:51.773Z,3.80
2022-12-09T01:15:22.696Z,3.80
2022-12-09T01:17:53.725Z,3.80
2022-12-09T01:20:24.676Z,3.80
2022-12-09T01:22:58.946Z,3.80
2022-12-09T01:25:37.754Z,3.70
2022-12-09T01:28:09.979Z,3.70
2022-12-09T01:30:44.192Z,3.70
2022-12-09T01:33:16.249Z,3.70
2022-12-09T01:35:46.998Z,3.70
2022-12-09T01:38:17.861Z,3.70
2022-12-09T01:40:51.434Z,3.80
2022-12-09T01:43:22.741Z,3.80
2022-12-09T01:45:54.291Z,3.80
2022-12-09T01:48:28.385Z,3.80
2022-12-09T01:51:05.185Z,3.80
2022-12-09T01:53:40.680Z,3.80
2022-12-09T01:56:19.182Z,3.80
2022-12-09T01:58:51.179Z,3.80
2022-12-09T02:01:22.498Z,3.80
2022-12-09T02:03:57.075Z,3.90
2022-12-09T02:06:30.786Z,3.90
2022-12-09T02:09:02.736Z,3.80
2022-12-09T02:11:45.583Z,3.90
2022-12-09T02:14:21.756Z,3.90
2022-12-09T02:17:02.171Z,3.90
2022-12-09T02:19:52.392Z,4.00
2022-12-09T02:22:31.061Z,4.00
2022-12-09T02:25:12.741Z,4.10
2022-12-09T02:27:51.605Z,4.10
2022-12-09T02:30:25.215Z,4.00
2022-12-09T02:33:22.160Z,4.00
2022-12-09T02:36:00.315Z,4.00
2022-12-09T02:38:34.674Z,4.00
2022-12-09T02:41:08.338Z,4.00
2022-12-09T02:43:49.421Z,4.40
2022-12-09T02:46:23.501Z,4.00
2022-12-09T02:48:57.925Z,4.50
2022-12-09T02:51:35.256Z,4.10
2022-12-09T02:54:11.330Z,4.10
2022-12-09T02:56:46.384Z,4.60
2022-12-09T02:59:18.625Z,4.10
2022-12-09T03:01:54.346Z,4.10
2022-12-09T03:04:29.874Z,4.10
2022-12-09T03:07:12.782Z,4.10
2022-12-09T03:09:49.917Z,4.10
2022-12-09T03:12:23.221Z,4.00
2022-12-09T03:14:56.226Z,4.00
2022-12-09T03:17:33.331Z,4.00
2022-12-09T03:20:08.522Z,4.00
2022-12-09T03:22:45.713Z,4.00
2022-12-09T03:25:21.435Z,4.00
2022-12-09T03:27:58.384Z,4.00
2022-12-09T03:30:29.276Z,3.90
2022-12-09T03:33:01.193Z,4.10
2022-12-09T03:35:39.382Z,4.30
2022-12-09T03:38:17.207Z,4.00
2022-12-09T03:40:50.769Z,4.00
2022-12-09T03:43:25.620Z,4.00
2022-12-09T03:45:59.082Z,4.10
2022-12-09T03:48:30.493Z,4.00
2022-12-09T03:51:06.880Z,4.00
2022-12-09T03:53:48.622Z,4.00
2022-12-09T03:56:23.795Z,4.00
2022-12-09T03:58:57.979Z,4.00
2022-12-09T04:01:31.356Z,3.90
2022-12-09T04:04:02.471Z,3.90
2022-12-09T04:06:33.953Z,3.80
2022-12-09T04:09:08.366Z,3.80
2022-12-09T04:11:39.376Z,3.80
2022-12-09T04:14:15.248Z,3.80
2022-12-09T04:16:46.919Z,3.80
2022-12-09T04:19:17.761Z,3.80
2022-12-09T04:21:48.866Z,3.70
2022-12-09T04:24:22.483Z,3.60
2022-12-09T04:26:53.299Z,3.70
2022-12-09T04:29:24.420Z,3.70
2022-12-09T04:31:58.409Z,3.70
2022-12-09T04:34:30.307Z,3.60
2022-12-09T04:37:05.816Z,3.60
2022-12-09T04:39:41.896Z,3.60
2022-12-09T04:42:12.918Z,3.60
2022-12-09T04:44:44.529Z,3.70
2022-12-09T04:47:15.299Z,3.70
2022-12-09T04:49:46.485Z,3.60
2022-12-09T04:52:19.200Z,3.60
2022-12-09T04:54:52.750Z,3.60
2022-12-09T04:57:24.836Z,3.60
2022-12-09T04:59:55.627Z,3.60
2022-12-09T05:02:26.874Z,3.50
2022-12-09T05:04:57.920Z,3.50
2022-12-09T05:07:29.194Z,3.50
2022-12-09T05:10:03.402Z,3.50
2022-12-09T05:12:36.604Z,3.50
2022-12-09T05:15:08.537Z,3.60
2022-12-09T05:17:40.787Z,3.60
2022-12-09T05:20:13.335Z,3.60
2022-12-09T05:22:44.749Z,3.60
2022-12-09T05:25:18.670Z,3.60
2022-12-09T05:27:50.329Z,3.60
2022-12-09T05:30:21.278Z,3.60
2022-12-09T05:32:52.467Z,3.60
2022-12-09T05:35:23.719Z,3.60
2022-12-09T05:37:54.978Z,3.60
2022-12-09T05:40:28.626Z,3.50
2022-12-09T05:42:59.544Z,3.60
2022-12-09T05:45:30.644Z,3.50
2022-12-09T05:48:03.012Z,3.50
2022-12-09T05:50:34.193Z,3.50
2022-12-09T05:53:05.118Z,3.50
2022-12-09T05:55:43.670Z,3.40
2022-12-09T05:58:14.922Z,3.40
2022-12-09T06:00:45.922Z,3.40
2022-12-09T06:03:21.012Z,3.40
2022-12-09T06:05:52.696Z,3.40
2022-12-09T06:08:24.675Z,3.40
2022-12-09T06:10:58.274Z,3.50
2022-12-09T06:13:29.816Z,3.60
2022-12-09T06:16:06.899Z,3.50
2022-12-09T06:18:38.001Z,3.50
2022-12-09T06:21:11.452Z,3.50
2022-12-09T06:23:43.763Z,3.50
2022-12-09T06:26:23.039Z,3.50
2022-12-09T06:28:57.588Z,3.60
2022-12-09T06:31:29.307Z,3.60
2022-12-09T06:34:01.168Z,3.60
2022-12-09T06:36:33.886Z,3.60
2022-12-09T06:39:10.579Z,3.70
2022-12-09T06:41:46.700Z,3.60
2022-12-09T06:44:23.501Z,3.70
2022-12-09T06:46:55.412Z,3.70
2022-12-09T06:49:26.472Z,4.00
2022-12-09T06:51:57.744Z,3.60
2022-12-09T06:54:29.083Z,3.60
2022-12-09T06:57:02.579Z,3.60
2022-12-09T06:59:35.987Z,3.70
2022-12-09T07:02:12.536Z,3.70
2022-12-09T07:04:43.833Z,3.40
2022-12-09T07:07:15.923Z,3.70
2022-12-09T07:09:47.102Z,3.70
2022-12-09T07:12:20.837Z,3.80
2022-12-09T07:14:54.157Z,3.70
2022-12-09T07:17:26.309Z,3.70
2022-12-09T07:20:03.362Z,3.70
2022-12-09T07:22:40.217Z,4.00
2022-12-09T07:25:12.282Z,3.70
2022-12-09T07:27:46.429Z,3.80
2022-12-09T07:30:19.552Z,3.80
2022-12-09T07:32:51.055Z,3.90
2022-12-09T07:35:22.399Z,3.90
2022-12-09T07:37:55.396Z,3.90
2022-12-09T07:40:26.532Z,3.90
2022-12-09T07:43:01.381Z,3.90
2022-12-09T07:45:32.767Z,3.90
2022-12-09T07:48:04.651Z,3.90
2022-12-09T07:50:35.888Z,3.90
2022-12-09T07:53:07.409Z,4.00
2022-12-09T07:55:38.645Z,3.90
2022-12-09T07:58:12.362Z,3.90
2022-12-09T08:00:44.200Z,4.00
2022-12-09T08:03:16.239Z,4.00
2022-12-09T08:05:50.806Z,4.00
2022-12-09T08:08:22.174Z,4.10
2022-12-09T08:10:55.549Z,4.10
2022-12-09T08:13:29.231Z,3.90
2022-12-09T08:16:07.041Z,4.20
2022-12-09T08:18:39.085Z,4.00
2022-12-09T08:21:16.086Z,4.00
2022-12-09T08:23:47.975Z,4.00
2022-12-09T08:26:23.867Z,4.00
2022-12-09T08:28:58.123Z,4.00
2022-12-09T08:31:35.699Z,4.00
2022-12-09T08:34:12.105Z,3.90
2022-12-09T08:36:43.716Z,4.00
2022-12-09T08:39:17.531Z,4.00
2022-12-09T08:41:48.491Z,4.10
2022-12-09T08:44:24.148Z,4.10
2022-12-09T08:46:55.493Z,4.20
2022-12-09T08:49:28.238Z,4.30
2022-12-09T08:51:59.851Z,4.30
2022-12-09T08:54:31.442Z,4.30
2022-12-09T08:57:02.336Z,4.30
2022-12-09T08:59:41.804Z,4.30
2022-12-09T09:02:16.441Z,4.40
2022-12-09T09:04:48.559Z,4.40
2022-12-09T09:07:21.490Z,4.40
2022-12-09T09:09:53.025Z,4.40
2022-12-09T09:12:24.114Z,4.70
2022-12-09T09:14:59.913Z,4.40
2022-12-09T09:17:31.097Z,4.40
2022-12-09T09:20:02.600Z,4.50
2022-12-09T09:22:37.184Z,4.40
2022-12-09T09:25:09.681Z,4.60
2022-12-09T09:27:40.899Z,4.40
2022-12-09T09:30:16.961Z,4.50
2022-12-09T09:32:48.664Z,4.50
2022-12-09T09:35:20.123Z,4.50
2022-12-09T09:37:51.936Z,4.40
2022-12-09T09:40:24.237Z,4.40
2022-12-09T09:42:58.705Z,4.50
2022-12-09T09:45:32.649Z,4.50
2022-12-09T09:48:05.891Z,4.50
2022-12-09T09:50:44.579Z,4.50
2022-12-09T09:53:22.149Z,4.50
2022-12-09T09:55:59.865Z,4.40
2022-12-09T09:58:43.664Z,4.40
2022-12-09T10:01:21.858Z,4.40
2022-12-09T10:04:02.766Z,4.40
2022-12-09T10:06:40.343Z,4.40
2022-12-09T10:09:18.924Z,4.30
2022-12-09T10:11:59.709Z,4.20
2022-12-09T10:14:43.045Z,4.30
2022-12-09T10:17:27.957Z,4.40
2022-12-09T10:20:05.980Z,4.40
2022-12-09T10:22:48.311Z,4.40
2022-12-09T10:25:23.284Z,4.50
2022-12-09T10:27:59.223Z,4.40
2022-12-09T10:30:37.308Z,4.40
2022-12-09T10:33:20.654Z,4.40
2022-12-09T10:35:52.069Z,4.30
2022-12-09T10:38:26.810Z,4.30
2022-12-09T10:41:04.576Z,4.80
2022-12-09T10:43:37.434Z,4.10
2022-12-09T10:46:21.819Z,4.50
2022-12-09T10:49:03.963Z,4.40
2022-12-09T10:51:39.628Z,4.50
2022-12-09T10:54:22.202Z,4.60
2022-12-09T10:57:25.179Z,4.50
2022-12-09T11:00:02.077Z,4.40
2022-12-09T11:02:36.662Z,4.50
2022-12-09T11:05:30.893Z,4.50
2022-12-09T11:08:02.865Z,4.50
2022-12-09T11:10:49.356Z,4.60
2022-12-09T11:13:23.080Z,4.50
2022-12-09T11:16:01.254Z,4.50
2022-12-09T11:18:34.933Z,4.50
2022-12-09T11:21:27.580Z,4.60
2022-12-09T11:24:03.243Z,4.50
2022-12-09T11:26:39.287Z,4.60
2022-12-09T11:29:22.105Z,4.60
2022-12-09T11:31:53.362Z,4.60
2022-12-09T11:34:28.200Z,4.70
2022-12-09T11:37:02.854Z,4.70
2022-12-09T11:39:37.205Z,4.70
2022-12-09T11:42:19.407Z,4.70
2022-12-09T11:44:59.284Z,4.80
2022-12-09T11:47:50.761Z,4.80
2022-12-09T11:50:31.658Z,4.80
2022-12-09T11:53:37.517Z,4.90
2022-12-09T11:56:21.174Z,4.90
2022-12-09T11:58:56.224Z,4.80
2022-12-09T12:01:33.656Z,4.90
2022-12-09T12:04:12.162Z,4.90
2022-12-09T12:06:49.960Z,5.20
2022-12-09T12:09:30.419Z,4.50
2022-12-09T12:12:07.716Z,4.70
2022-12-09T12:14:41.208Z,4.70
2022-12-09T12:17:23.927Z,4.70
2022-12-09T12:19:57.577Z,4.70
2022-12-09T12:22:56.622Z,4.70
2022-12-09T12:25:47.414Z,4.60
2022-12-09T12:28:38.858Z,4.60
2022-12-09T12:31:22.340Z,4.70
2022-12-09T12:37:04.015Z,4.70
2022-12-09T12:39:48.341Z,4.70
2022-12-09T12:42:34.955Z,4.80
2022-12-09T12:45:28.526Z,4.80
2022-12-09T12:48:07.097Z,4.80
2022-12-09T12:50:53.429Z,4.90
2022-12-09T12:53:34.330Z,4.90
2022-12-09T12:56:09.949Z,4.90
2022-12-09T12:59:00.148Z,4.90
2022-12-09T13:01:33.684Z,4.90
2022-12-09T13:04:20.117Z,4.50
2022-12-09T13:06:57.674Z,4.90
2022-12-09T13:09:36.349Z,4.90
2022-12-09T13:12:14.176Z,5.00
2022-12-09T13:14:56.069Z,5.00
2022-12-09T13:17:35.091Z,5.00
2022-12-09T13:20:08.276Z,5.00
2022-12-09T13:22:50.336Z,4.90
2022-12-09T13:25:32.151Z,5.00
2022-12-09T13:28:10.976Z,4.90
2022-12-09T13:30:54.376Z,4.80
2022-12-09T13:33:44.638Z,4.60
2022-12-09T13:36:22.600Z,4.40
2022-12-09T13:38:56.760Z,4.20
2022-12-09T13:42:06.794Z,4.10
2022-12-09T13:44:40.342Z,4.10
2022-12-09T13:47:28.434Z,4.00
2022-12-09T13:50:04.273Z,4.10
2022-12-09T13:52:45.328Z,4.10
2022-12-09T13:55:39.660Z,4.00
2022-12-09T13:58:42.392Z,4.00
2022-12-09T14:01:22.603Z,3.90
2022-12-09T14:04:14.468Z,3.80
2022-12-09T14:06:57.603Z,3.70
2022-12-09T14:09:38.600Z,3.70
2022-12-09T14:12:15.897Z,3.70
2022-12-09T14:14:53.038Z,3.70
2022-12-09T14:17:59.676Z,3.40
2022-12-09T14:20:36.368Z,3.60
2022-12-09T14:23:21.373Z,3.50
2022-12-09T14:26:02.861Z,3.40
2022-12-09T14:29:00.816Z,3.40
2022-12-09T14:32:03.092Z,3.50
2022-12-09T14:34:38.800Z,3.50
2022-12-09T14:37:41.667Z,3.50
2022-12-09T14:40:29.506Z,3.40
2022-12-09T14:43:10.071Z,3.40
2022-12-09T14:45:50.554Z,3.40
2022-12-09T14:48:25.148Z,3.30
2022-12-09T14:51:12.191Z,3.20
2022-12-09T14:53:47.095Z,3.10
2022-12-09T14:56:20.574Z,3.10
2022-12-09T14:58:54.220Z,3.20
2022-12-09T15:01:25.166Z,3.60
2022-12-09T15:03:57.904Z,2.90
2022-12-09T15:06:30.379Z,2.80
2022-12-09T15:09:06.637Z,2.90
2022-12-09T15:11:39.536Z,2.70
2022-12-09T15:14:24.825Z,2.80
2022-12-09T15:16:57.100Z,2.70
2022-12-09T15:19:59.252Z,2.70
2022-12-09T15:22:25.012Z,2.70
2022-12-09T15:25:02.339Z,2.70
2022-12-09T15:27:33.409Z,2.70
2022-12-09T15:30:17.275Z,2.60
2022-12-09T15:32:50.361Z,2.70
2022-12-09T15:35:24.791Z,2.70
2022-12-09T15:37:59.043Z,2.70
2022-12-09T15:40:35.439Z,2.70
2022-12-09T15:43:11.386Z,2.50
2022-12-09T15:45:46.033Z,2.50
2022-12-09T15:48:23.121Z,2.40
2022-12-09T15:50:57.445Z,2.30
2022-12-09T15:53:32.242Z,2.20
2022-12-09T15:56:11.543Z,2.30
2022-12-09T15:58:46.331Z,2.20
2022-12-09T16:01:22.738Z,2.30
2022-12-09T16:03:56.448Z,2.20
2022-12-09T16:06:31.738Z,2.10
2022-12-09T16:09:04.055Z,2.00
2022-12-09T16:11:42.474Z,1.90
2022-12-09T16:14:13.836Z,1.80
2022-12-09T16:16:48.616Z,1.90
2022-12-09T16:19:38.790Z,2.10
2022-12-09T16:22:18.254Z,2.10
2022-12-09T16:27:51.267Z,2.30
2022-12-09T16:30:25.786Z,2.20
2022-12-09T16:32:58.315Z,2.20
2022-12-09T16:35:36.907Z,2.00
2022-12-09T16:38:22.279Z,2.30
2022-12-09T16:41:10.391Z,2.30
2022-12-09T16:43:57.720Z,2.10
2022-12-09T16:46:43.913Z,2.10
2022-12-09T16:49:17.691Z,2.10
2022-12-09T16:51:48.474Z,2.10
2022-12-09T16:54:20.857Z,2.00
2022-12-09T16:56:53.595Z,2.10
2022-12-09T16:59:33.995Z,2.40
2022-12-09T17:02:16.920Z,2.00
2022-12-09T17:04:51.385Z,2.10
2022-12-09T17:07:22.160Z,2.10
2022-12-09T17:09:53.072Z,2.10
2022-12-09T17:12:23.968Z,2.20
2022-12-09T17:14:57.587Z,2.20
2022-12-09T17:17:28.455Z,2.20
2022-12-09T17:19:59.535Z,2.10
2022-12-09T17:22:31.307Z,2.10
2022-12-09T17:25:03.433Z,2.10
2022-12-09T17:27:36.791Z,2.20
2022-12-09T17:30:13.177Z,2.30
2022-12-09T17:32:43.967Z,2.30
2022-12-09T17:35:16.483Z,2.30
2022-12-09T17:37:47.409Z,2.70
2022-12-09T17:40:18.933Z,2.20
2022-12-09T17:46:17.314Z,2.30
2022-12-09T17:48:48.593Z,2.30
2022-12-09T17:51:20.704Z,2.30
2022-12-09T17:53:53.575Z,2.40
2022-12-09T17:56:26.154Z,2.40
2022-12-09T17:59:00.934Z,2.40
2022-12-09T18:01:36.193Z,2.40
2022-12-09T18:04:10.712Z,2.70
2022-12-09T18:06:43.331Z,2.30
2022-12-09T18:09:20.103Z,2.30
2022-12-09T18:11:54.158Z,2.20
2022-12-09T18:14:25.486Z,2.30
2022-12-09T18:16:58.832Z,2.60
2022-12-09T18:19:30.344Z,2.30
2022-12-09T18:22:03.157Z,2.30
2022-12-09T18:24:35.400Z,2.20
2022-12-09T18:27:07.040Z,2.20
2022-12-09T18:29:40.831Z,2.40
2022-12-09T18:32:14.490Z,2.20
2022-12-09T18:34:46.380Z,2.30
2022-12-09T18:37:18.825Z,2.90
2022-12-09T18:39:49.814Z,2.40
2022-12-09T18:42:20.830Z,2.40
2022-12-09T18:44:52.484Z,2.50
2022-12-09T18:47:25.987Z,2.30
2022-12-09T18:49:57.270Z,2.20
2022-12-09T18:52:28.066Z,2.20
2022-12-09T18:55:01.502Z,2.20
2022-12-09T18:57:35.666Z,2.10
2022-12-09T19:00:07.813Z,2.10
2022-12-09T19:02:43.852Z,2.00
2022-12-09T19:05:15.051Z,1.90
2022-12-09T19:07:48.245Z,1.80
2022-12-09T19:10:20.151Z,1.80
2022-12-09T19:12:56.330Z,1.80
2022-12-09T19:15:27.711Z,1.80
2022-12-09T19:18:01.477Z,1.80
2022-12-09T19:20:32.327Z,1.70
2022-12-09T19:23:04.907Z,1.40
2022-12-09T19:25:35.639Z,1.60
2022-12-09T19:28:08.877Z,1.60
2022-12-09T19:30:39.717Z,1.60
2022-12-09T19:33:13.496Z,1.60
2022-12-09T19:35:45.542Z,1.50
2022-12-09T19:38:16.307Z,1.50
2022-12-09T19:40:47.115Z,1.50
2022-12-09T19:43:18.379Z,1.50
2022-12-09T19:45:49.212Z,1.80
2022-12-09T19:48:24.411Z,1.50
2022-12-09T19:50:57.090Z,1.40
2022-12-09T19:53:27.902Z,1.40
2022-12-09T19:56:00.266Z,1.40
2022-12-09T19:58:31.618Z,1.50
2022-12-09T20:01:02.864Z,1.40
2022-12-09T20:03:36.659Z,1.40
2022-12-09T20:06:10.845Z,1.40
2022-12-09T20:08:42.957Z,1.80
2022-12-09T20:11:17.247Z,1.50
2022-12-09T20:13:50.324Z,1.40
2022-12-09T20:16:23.185Z,1.50
2022-12-09T20:18:58.725Z,1.50
2022-12-09T20:21:32.484Z,1.60
2022-12-09T20:24:05.116Z,1.60
2022-12-09T20:26:37.895Z,1.60
2022-12-09T20:29:12.367Z,1.60
2022-12-09T20:31:44.413Z,1.50
2022-12-09T20:34:18.874Z,1.50
2022-12-09T20:36:49.839Z,1.50
2022-12-09T20:39:23.475Z,1.90
2022-12-09T20:41:54.373Z,1.50
2022-12-09T20:44:25.268Z,1.40
2022-12-09T20:46:56.968Z,1.40
2022-12-09T20:49:31.740Z,1.30
2022-12-09T20:52:05.462Z,1.30
2022-12-09T20:54:36.584Z,1.20
2022-12-09T20:57:07.372Z,1.20
2022-12-09T20:59:38.286Z,1.20
2022-12-09T21:02:13.833Z,0.90
2022-12-09T21:04:47.259Z,1.10
2022-12-09T21:07:18.050Z,1.10
2022-12-09T21:09:48.931Z,1.10
2022-12-09T21:12:19.657Z,1.00
2022-12-09T21:14:50.764Z,1.00
2022-12-09T21:17:22.104Z,1.00
2022-12-09T21:19:55.425Z,1.10
2022-12-09T21:22:28.404Z,1.20
2022-12-09T21:25:01.471Z,1.20
2022-12-09T21:27:35.395Z,1.30
2022-12-09T21:30:09.699Z,1.40
2022-12-09T21:32:41.875Z,1.40
2022-12-09T21:35:15.449Z,1.40
2022-12-09T21:37:46.338Z,1.50
2022-12-09T21:40:20.350Z,1.50
2022-12-09T21:42:53.578Z,1.60
2022-12-09T21:45:26.476Z,1.60
2022-12-09T21:48:04.110Z,1.60
2022-12-09T21:50:40.447Z,1.60
2022-12-09T21:53:14.530Z,1.70
2022-12-09T21:55:45.687Z,1.70
2022-12-09T21:58:16.407Z,1.80
2022-12-09T22:00:47.496Z,1.80
2022-12-09T22:03:19.931Z,1.90
2022-12-09T22:05:56.638Z,1.90
2022-12-09T22:08:33.898Z,1.90
2022-12-09T22:11:10.507Z,1.90
2022-12-09T22:13:41.357Z,1.90
2022-12-09T22:16:14.523Z,1.90
2022-12-09T22:18:45.724Z,1.90
2022-12-09T22:21:27.732Z,1.90
2022-12-09T22:24:04.344Z,1.90
2022-12-09T22:26:37.198Z,1.90
2022-12-09T22:29:10.781Z,1.90
2022-12-09T22:31:41.930Z,1.80
2022-12-09T22:34:17.148Z,1.80
2022-12-09T22:36:48.372Z,1.60
2022-12-09T22:39:25.630Z,1.90
2022-12-09T22:41:58.033Z,2.30
2022-12-09T22:44:29.177Z,1.80
2022-12-09T22:47:02.404Z,1.80
2022-12-09T22:49:33.322Z,1.80
2022-12-09T22:52:04.262Z,1.80
2022-12-09T22:54:37.584Z,1.80
2022-12-09T22:57:08.617Z,1.80
2022-12-09T22:59:42.972Z,1.80
2022-12-09T23:02:14.095Z,1.80
2022-12-09T23:04:48.109Z,1.80
2022-12-09T23:07:35.389Z,1.70
2022-12-09T23:10:10.848Z,1.70
2022-12-09T23:12:42.819Z,1.70
2022-12-09T23:15:14.896Z,1.70
2022-12-09T23:17:45.793Z,1.70
2022-12-09T23:20:16.616Z,1.90
2022-12-09T23:22:47.462Z,1.80
2022-12-09T23:25:21.227Z,1.80
2022-12-09T23:27:52.430Z,1.80
2022-12-09T23:30:25.296Z,1.80
2022-12-09T23:32:58.945Z,1.80
2022-12-09T23:35:33.349Z,1.80
2022-12-09T23:38:06.679Z,1.70
2022-12-09T23:40:39.978Z,1.70
2022-12-09T23:43:13.821Z,1.70
2022-12-09T23:45:44.916Z,1.70
2022-12-09T23:48:15.701Z,1.90
2022-12-09T23:50:46.734Z,1.60
2022-12-09T23:53:18.542Z,1.70
2022-12-09T23:55:52.004Z,1.70
2022-12-09T23:58:22.981Z,1.80
